createdAt,value
2024-02-29T00:02:24.638Z,40.25
2024-02-29T00:04:51.152Z,39.60
2024-02-29T00:07:17.919Z,42.35
2024-02-29T00:09:44.809Z,40.65
2024-02-29T00:12:11.634Z,43.67
2024-02-29T00:14:39.245Z,44.03
2024-02-29T00:17:07.311Z,41.25
2024-02-29T00:19:34.091Z,43.92
2024-02-29T00:22:00.965Z,41.80
2024-02-29T00:24:27.851Z,38.88
2024-02-29T00:26:54.526Z,42.47
2024-02-29T00:29:22.975Z,37.95
2024-02-29T00:31:49.951Z,38.30
2024-02-29T00:34:16.753Z,40.45
2024-02-29T00:36:43.748Z,39.15
2024-02-29T00:39:14.882Z,50.20
2024-02-29T00:41:42.818Z,42.78
2024-02-29T00:44:10.574Z,39.67
2024-02-29T00:46:41.410Z,40.75
2024-02-29T00:49:08.417Z,40.08
2024-02-29T00:51:35.509Z,39.40
2024-02-29T00:54:02.343Z,35.22
2024-02-29T00:56:29.095Z,41.08
2024-02-29T00:58:55.649Z,39.45
2024-02-29T01:01:22.276Z,40.38
2024-02-29T01:03:49.350Z,43.50
2024-02-29T01:06:17.147Z,41.97
2024-02-29T01:08:43.981Z,37.92
2024-02-29T01:11:10.641Z,40.08
2024-02-29T01:13:37.530Z,40.08
2024-02-29T01:16:04.382Z,41.97
2024-02-29T01:18:30.949Z,42.60
2024-02-29T01:20:57.766Z,38.63
2024-02-29T01:23:24.321Z,44.00
2024-02-29T01:25:51.061Z,41.13
2024-02-29T01:28:17.617Z,41.72
2024-02-29T01:30:44.687Z,36.10
2024-02-29T01:33:11.330Z,36.47
2024-02-29T01:35:39.260Z,41.55
2024-02-29T01:38:06.148Z,43.92
2024-02-29T01:40:33.161Z,41.05
2024-02-29T01:42:59.742Z,43.95
2024-02-29T01:45:26.539Z,41.20
2024-02-29T01:47:53.406Z,36.90
2024-02-29T01:50:20.657Z,33.55
2024-02-29T01:52:47.266Z,37.47
2024-02-29T01:55:14.179Z,40.63
2024-02-29T01:57:41.095Z,38.00
2024-02-29T02:00:10.191Z,37.72
2024-02-29T02:02:39.225Z,39.47
2024-02-29T02:05:09.569Z,38.85
2024-02-29T02:07:37.000Z,44.10
2024-02-29T02:10:04.697Z,38.83
2024-02-29T02:12:31.512Z,37.22
2024-02-29T02:14:58.524Z,36.78
2024-02-29T02:17:25.402Z,40.95
2024-02-29T02:19:53.620Z,39.58
2024-02-29T02:22:20.382Z,38.67
2024-02-29T02:24:47.133Z,40.22
2024-02-29T02:27:13.926Z,43.13
2024-02-29T02:29:40.761Z,41.40
2024-02-29T02:32:08.065Z,44.80
2024-02-29T02:34:34.833Z,37.47
2024-02-29T02:37:01.349Z,32.90
2024-02-29T02:39:28.204Z,34.97
2024-02-29T02:41:54.954Z,34.47
2024-02-29T02:44:21.663Z,37.25
2024-02-29T02:46:48.466Z,37.47
2024-02-29T02:49:16.983Z,34.17
2024-02-29T02:51:43.852Z,37.50
2024-02-29T02:54:10.319Z,35.30
2024-02-29T02:56:37.041Z,34.38
2024-02-29T02:59:03.807Z,33.50
2024-02-29T03:01:31.249Z,37.05
2024-02-29T03:03:57.873Z,34.47
2024-02-29T03:06:24.388Z,32.53
2024-02-29T03:08:50.911Z,33.05
2024-02-29T03:11:17.507Z,30.25
2024-02-29T03:13:44.337Z,32.92
2024-02-29T03:16:10.916Z,31.58
2024-02-29T03:18:37.730Z,36.22
2024-02-29T03:21:04.845Z,35.65
2024-02-29T03:23:31.614Z,29.95
2024-02-29T03:25:58.411Z,32.88
2024-02-29T03:28:24.997Z,37.08
2024-02-29T03:30:51.835Z,35.75
2024-02-29T03:33:18.352Z,29.85
2024-02-29T03:35:45.098Z,30.08
2024-02-29T03:38:12.734Z,31.80
2024-02-29T03:40:39.233Z,34.03
2024-02-29T03:43:05.804Z,29.42
2024-02-29T03:45:32.527Z,30.58
2024-02-29T03:47:59.396Z,31.27
2024-02-29T03:50:26.000Z,24.80
2024-02-29T03:52:52.756Z,31.25
2024-02-29T03:55:19.569Z,31.70
2024-02-29T03:57:46.361Z,30.83
2024-02-29T04:00:13.641Z,31.25
2024-02-29T04:02:41.173Z,36.50
2024-02-29T04:05:09.318Z,32.95
2024-02-29T04:07:43.482Z,32.83
2024-02-29T04:10:12.368Z,27.77
2024-02-29T04:12:39.076Z,29.13
2024-02-29T04:15:06.397Z,26.13
2024-02-29T04:17:33.619Z,25.52
2024-02-29T04:20:00.459Z,26.67
2024-02-29T04:22:27.256Z,24.17
2024-02-29T04:24:53.839Z,26.13
2024-02-29T04:27:20.653Z,26.02
2024-02-29T04:29:47.735Z,25.60
2024-02-29T04:32:14.340Z,27.27
2024-02-29T04:34:42.421Z,24.83
2024-02-29T04:37:09.414Z,22.80
2024-02-29T04:39:36.559Z,29.00
2024-02-29T04:42:04.847Z,23.52
2024-02-29T04:44:31.717Z,25.40
2024-02-29T04:46:58.235Z,25.52
2024-02-29T04:49:24.859Z,20.98
2024-02-29T04:51:51.866Z,24.65
2024-02-29T04:54:18.752Z,26.25
2024-02-29T04:56:45.563Z,24.88
2024-02-29T04:59:12.324Z,23.02
2024-02-29T05:01:39.258Z,24.60
2024-02-29T05:04:06.118Z,23.33
2024-02-29T05:06:33.096Z,24.83
2024-02-29T05:09:00.500Z,26.38
2024-02-29T05:11:27.337Z,21.75
2024-02-29T05:13:53.933Z,26.27
2024-02-29T05:16:21.400Z,25.23
2024-02-29T05:18:48.333Z,24.90
2024-02-29T05:21:14.983Z,25.42
2024-02-29T05:23:41.523Z,28.17
2024-02-29T05:26:09.314Z,24.88
2024-02-29T05:28:36.408Z,24.20
2024-02-29T05:31:03.195Z,24.27
2024-02-29T05:33:29.768Z,23.88
2024-02-29T05:35:56.835Z,22.20
2024-02-29T05:38:23.627Z,25.30
2024-02-29T05:40:50.416Z,27.38
2024-02-29T05:43:17.451Z,25.25
2024-02-29T05:45:44.416Z,23.33
2024-02-29T05:48:11.061Z,25.10
2024-02-29T05:50:37.782Z,24.50
2024-02-29T05:53:04.641Z,22.02
2024-02-29T05:55:31.462Z,22.75
2024-02-29T05:57:58.034Z,19.23
2024-02-29T06:00:24.821Z,20.20
2024-02-29T06:02:53.032Z,18.35
2024-02-29T06:05:21.093Z,19.55
2024-02-29T06:07:47.680Z,19.83
2024-02-29T06:10:14.296Z,20.58
2024-02-29T06:12:41.055Z,22.38
2024-02-29T06:15:10.889Z,20.63
2024-02-29T06:17:38.508Z,20.65
2024-02-29T06:20:11.706Z,21.02
2024-02-29T06:22:41.060Z,17.50
2024-02-29T06:27:37.798Z,18.35
2024-02-29T06:30:06.972Z,22.27
2024-02-29T06:32:33.993Z,17.45
2024-02-29T06:35:00.880Z,18.60
2024-02-29T06:37:27.718Z,16.88
2024-02-29T06:39:57.399Z,22.20
2024-02-29T06:42:24.014Z,21.08
2024-02-29T06:44:52.508Z,19.63
2024-02-29T06:47:19.339Z,17.92
2024-02-29T06:49:45.874Z,18.75
2024-02-29T06:52:12.466Z,19.75
2024-02-29T06:54:39.319Z,16.65
2024-02-29T06:57:06.142Z,19.10
2024-02-29T06:59:32.679Z,18.75
2024-02-29T07:01:59.276Z,17.95
2024-02-29T07:04:26.282Z,19.08
2024-02-29T07:06:53.131Z,16.70
2024-02-29T07:09:19.907Z,14.35
2024-02-29T07:11:47.172Z,16.88
2024-02-29T07:14:14.387Z,18.13
2024-02-29T07:16:41.185Z,18.77
2024-02-29T07:19:08.019Z,18.30
2024-02-29T07:21:37.306Z,15.57
2024-02-29T07:26:32.163Z,16.10
2024-02-29T07:28:59.834Z,16.08
2024-02-29T07:31:26.957Z,14.50
2024-02-29T07:33:55.006Z,13.82
2024-02-29T07:36:21.989Z,15.93
2024-02-29T07:38:48.484Z,15.13
2024-02-29T07:41:15.358Z,16.38
2024-02-29T07:43:42.356Z,16.27
2024-02-29T07:46:10.167Z,18.30
2024-02-29T07:48:37.058Z,16.92
2024-02-29T07:51:03.945Z,14.02
2024-02-29T07:53:30.565Z,14.70
2024-02-29T07:55:57.381Z,15.07
2024-02-29T07:58:24.327Z,17.38
2024-02-29T08:00:51.168Z,15.30
2024-02-29T08:03:17.870Z,15.70
2024-02-29T08:05:44.636Z,14.23
2024-02-29T08:08:12.829Z,14.52
2024-02-29T08:10:40.436Z,16.38
2024-02-29T08:13:07.227Z,11.82
2024-02-29T08:15:35.419Z,13.32
2024-02-29T08:18:02.618Z,15.65
2024-02-29T08:20:29.516Z,11.65
2024-02-29T08:22:58.342Z,11.45
2024-02-29T08:25:27.743Z,11.90
2024-02-29T08:27:54.946Z,11.55
2024-02-29T08:30:21.686Z,12.88
2024-02-29T08:32:49.873Z,13.35
2024-02-29T08:35:17.635Z,9.48
2024-02-29T08:37:45.134Z,9.20
2024-02-29T08:40:12.138Z,9.13
2024-02-29T08:42:39.235Z,9.88
2024-02-29T08:45:08.075Z,10.00
2024-02-29T08:47:34.693Z,10.82
2024-02-29T08:50:03.230Z,12.57
2024-02-29T08:52:32.393Z,10.05
2024-02-29T08:54:59.010Z,12.05
2024-02-29T08:57:25.553Z,9.55
2024-02-29T08:59:52.322Z,11.40
2024-02-29T09:02:22.000Z,11.48
2024-02-29T09:04:48.811Z,7.72
2024-02-29T09:07:15.414Z,11.82
2024-02-29T09:09:43.380Z,9.00
2024-02-29T09:12:11.210Z,9.27
2024-02-29T09:14:38.576Z,8.40
2024-02-29T09:17:07.544Z,12.07
2024-02-29T09:19:34.840Z,12.25
2024-02-29T09:22:01.572Z,9.23
2024-02-29T09:24:28.438Z,11.43
2024-02-29T09:26:55.084Z,13.00
2024-02-29T09:29:25.637Z,12.32
2024-02-29T09:31:53.465Z,11.25
2024-02-29T09:34:20.234Z,13.82
2024-02-29T09:36:47.985Z,15.80
2024-02-29T09:39:14.771Z,12.48
2024-02-29T09:41:59.676Z,12.15
2024-02-29T09:44:28.516Z,11.50
2024-02-29T09:46:54.999Z,16.02
2024-02-29T09:49:21.784Z,13.18
2024-02-29T09:51:48.914Z,12.02
2024-02-29T09:54:19.222Z,12.80
2024-02-29T09:56:47.314Z,15.50
2024-02-29T09:59:16.932Z,14.38
2024-02-29T10:01:46.196Z,14.68
2024-02-29T10:04:12.923Z,14.27
2024-02-29T10:06:39.778Z,15.07
2024-02-29T10:09:06.957Z,17.08
2024-02-29T10:11:33.594Z,14.73
2024-02-29T10:14:03.408Z,17.58
2024-02-29T10:16:32.523Z,15.27
2024-02-29T10:19:02.522Z,16.30
2024-02-29T10:21:34.408Z,16.58
2024-02-29T10:24:01.172Z,16.23
2024-02-29T10:26:27.982Z,13.70
2024-02-29T10:29:04.089Z,15.32
2024-02-29T10:31:30.923Z,19.15
2024-02-29T10:33:57.446Z,19.30
2024-02-29T10:36:24.406Z,16.30
2024-02-29T10:38:51.412Z,13.98
2024-02-29T10:41:20.740Z,15.23
2024-02-29T10:43:51.827Z,18.95
2024-02-29T10:46:20.971Z,17.00
2024-02-29T10:48:50.886Z,17.73
2024-02-29T10:51:55.387Z,17.15
2024-02-29T10:54:29.515Z,19.15
2024-02-29T10:56:57.559Z,16.15
2024-02-29T10:59:26.440Z,16.08
2024-02-29T11:04:26.921Z,18.13
2024-02-29T11:06:54.172Z,18.98
2024-02-29T11:09:28.147Z,12.93
2024-02-29T11:12:15.245Z,17.48
2024-02-29T11:14:46.590Z,15.45
2024-02-29T11:17:16.637Z,15.80
2024-02-29T11:19:52.007Z,14.88
2024-02-29T11:22:32.858Z,15.02
2024-02-29T11:25:01.307Z,14.90
2024-02-29T11:27:34.959Z,14.50
2024-02-29T11:30:02.856Z,13.40
2024-02-29T11:32:33.530Z,13.40
2024-02-29T11:35:00.491Z,14.80
2024-02-29T11:37:32.710Z,12.75
2024-02-29T11:40:06.490Z,11.85
2024-02-29T11:42:33.676Z,14.27
2024-02-29T11:45:00.445Z,14.68
2024-02-29T11:47:28.627Z,13.63
2024-02-29T11:49:59.289Z,11.88
2024-02-29T11:52:26.062Z,11.68
2024-02-29T11:54:54.094Z,11.88
2024-02-29T11:57:23.241Z,12.73
2024-02-29T11:59:51.388Z,11.57
2024-02-29T12:02:19.782Z,12.18
2024-02-29T12:04:46.699Z,11.82
2024-02-29T12:07:13.489Z,11.65
2024-02-29T12:09:40.667Z,12.07
2024-02-29T12:12:07.757Z,10.57
2024-02-29T12:14:37.271Z,11.68
2024-02-29T12:17:06.953Z,11.07
2024-02-29T12:19:33.812Z,12.25
2024-02-29T12:22:00.668Z,11.65
2024-02-29T12:24:27.611Z,12.63
2024-02-29T12:26:54.275Z,13.73
2024-02-29T12:29:23.461Z,11.57
2024-02-29T12:31:50.831Z,11.50
2024-02-29T12:34:18.557Z,10.65
2024-02-29T12:36:48.230Z,11.40
2024-02-29T12:39:20.505Z,11.30
2024-02-29T12:41:47.323Z,10.32
2024-02-29T12:44:14.162Z,10.48
2024-02-29T12:46:41.614Z,10.30
2024-02-29T12:49:08.733Z,11.18
2024-02-29T12:51:35.489Z,9.55
2024-02-29T12:54:02.245Z,12.20
2024-02-29T12:56:28.782Z,10.52
2024-02-29T12:58:55.310Z,8.45
2024-02-29T13:01:22.702Z,9.98
2024-02-29T13:03:49.562Z,10.13
2024-02-29T13:06:16.555Z,9.02
2024-02-29T13:08:43.288Z,11.10
2024-02-29T13:11:09.989Z,8.07
2024-02-29T13:13:38.725Z,9.35
2024-02-29T13:18:32.756Z,11.13
2024-02-29T13:21:01.314Z,10.45
2024-02-29T13:23:28.977Z,9.57
2024-02-29T13:25:55.979Z,8.65
2024-02-29T13:28:22.975Z,8.10
2024-02-29T13:30:49.914Z,7.68
2024-02-29T13:33:17.896Z,7.65
2024-02-29T13:35:44.845Z,7.00
2024-02-29T13:38:12.206Z,8.50
2024-02-29T13:40:39.026Z,8.18
2024-02-29T13:43:05.814Z,6.53
2024-02-29T13:45:38.791Z,8.38
2024-02-29T13:48:06.091Z,8.05
2024-02-29T13:50:33.271Z,7.07
2024-02-29T13:53:00.033Z,9.43
2024-02-29T13:55:26.900Z,7.85
2024-02-29T13:57:54.142Z,7.80
2024-02-29T14:00:21.184Z,6.88
2024-02-29T14:02:47.715Z,9.00
2024-02-29T14:05:15.542Z,9.07
2024-02-29T14:07:44.550Z,7.38
2024-02-29T14:10:12.320Z,7.38
2024-02-29T14:12:40.000Z,7.70
2024-02-29T14:15:07.250Z,8.23
2024-02-29T14:17:34.151Z,9.00
2024-02-29T14:20:00.962Z,7.13
2024-02-29T14:22:28.709Z,9.20
2024-02-29T14:24:55.467Z,6.38
2024-02-29T14:27:24.011Z,9.20
2024-02-29T14:29:50.880Z,7.65
2024-02-29T14:32:17.801Z,8.68
2024-02-29T14:34:45.347Z,10.82
2024-02-29T14:37:12.204Z,9.88
2024-02-29T14:39:39.115Z,8.98
2024-02-29T14:42:05.876Z,7.63
2024-02-29T14:44:32.447Z,10.20
2024-02-29T14:46:59.401Z,8.70
2024-02-29T14:49:26.795Z,12.43
2024-02-29T14:51:56.947Z,8.65
2024-02-29T14:54:23.755Z,10.25
2024-02-29T14:56:51.113Z,10.65
2024-02-29T14:59:18.602Z,10.00
2024-02-29T15:01:45.449Z,9.93
2024-02-29T15:04:13.333Z,20.92
2024-02-29T15:06:40.913Z,8.95
2024-02-29T15:09:07.823Z,8.95
2024-02-29T15:11:34.512Z,9.80
2024-02-29T15:14:01.305Z,11.20
2024-02-29T15:16:28.603Z,11.75
2024-02-29T15:18:55.549Z,10.55
2024-02-29T15:21:22.159Z,11.25
2024-02-29T15:23:48.790Z,10.68
2024-02-29T15:26:16.749Z,10.52
2024-02-29T15:28:49.165Z,8.45
2024-02-29T15:31:16.774Z,10.85
2024-02-29T15:33:44.130Z,10.02
2024-02-29T15:36:11.247Z,10.32
2024-02-29T15:38:38.118Z,10.52
2024-02-29T15:41:05.092Z,9.70
2024-02-29T15:43:32.371Z,10.40
2024-02-29T15:45:59.407Z,10.25
2024-02-29T15:48:26.195Z,10.52
2024-02-29T15:50:53.184Z,10.07
2024-02-29T15:53:20.392Z,11.90
2024-02-29T15:55:50.376Z,11.88
2024-02-29T15:58:17.526Z,10.98
2024-02-29T16:00:44.275Z,11.73
2024-02-29T16:03:11.156Z,11.25
2024-02-29T16:05:37.793Z,12.45
2024-02-29T16:08:04.643Z,12.27
2024-02-29T16:10:32.339Z,11.77
2024-02-29T16:12:59.521Z,12.50
2024-02-29T16:15:26.644Z,13.73
2024-02-29T16:17:53.699Z,12.82
2024-02-29T16:20:23.077Z,14.13
2024-02-29T16:22:50.573Z,13.63
2024-02-29T16:25:19.636Z,14.27
2024-02-29T16:27:47.080Z,12.10
2024-02-29T16:30:13.948Z,16.40
2024-02-29T16:32:43.643Z,13.35
2024-02-29T16:35:12.888Z,13.30
2024-02-29T16:37:39.914Z,12.35
2024-02-29T16:40:07.337Z,15.50
2024-02-29T16:42:34.144Z,14.80
2024-02-29T16:45:00.933Z,14.25
2024-02-29T16:47:27.907Z,16.80
2024-02-29T16:49:54.781Z,14.13
2024-02-29T16:52:21.782Z,16.13
2024-02-29T16:54:48.475Z,16.15
2024-02-29T16:57:15.308Z,16.25
2024-02-29T16:59:42.140Z,15.18
2024-02-29T17:02:09.143Z,16.38
2024-02-29T17:04:37.426Z,16.15
2024-02-29T17:07:05.995Z,18.70
2024-02-29T17:09:33.179Z,15.57
2024-02-29T17:12:00.643Z,16.70
2024-02-29T17:14:29.376Z,16.63
2024-02-29T17:16:56.269Z,15.90
2024-02-29T17:19:23.182Z,17.08
2024-02-29T17:21:50.124Z,15.27
2024-02-29T17:24:21.370Z,16.23
2024-02-29T17:26:48.224Z,19.50
2024-02-29T17:29:14.972Z,17.50
2024-02-29T17:31:41.441Z,16.95
2024-02-29T17:34:08.378Z,18.67
2024-02-29T17:36:35.934Z,15.43
2024-02-29T17:39:03.936Z,16.95
2024-02-29T17:41:30.779Z,17.30
2024-02-29T17:43:57.361Z,14.15
2024-02-29T17:46:24.197Z,15.85
2024-02-29T17:48:52.710Z,16.10
2024-02-29T17:51:19.473Z,19.50
2024-02-29T17:53:46.172Z,18.20
2024-02-29T17:56:13.608Z,17.92
2024-02-29T17:58:40.319Z,16.45
2024-02-29T18:01:06.843Z,20.30
2024-02-29T18:03:33.863Z,22.25
2024-02-29T18:06:00.583Z,21.00
2024-02-29T18:08:27.350Z,19.17
2024-02-29T18:10:53.939Z,18.48
2024-02-29T18:13:20.821Z,19.70
2024-02-29T18:15:47.483Z,20.55
2024-02-29T18:18:14.314Z,16.80
2024-02-29T18:20:41.125Z,19.65
2024-02-29T18:23:08.784Z,19.00
2024-02-29T18:25:35.395Z,18.35
2024-02-29T18:28:02.262Z,16.83
2024-02-29T18:30:28.852Z,19.55
2024-02-29T18:32:55.827Z,17.30
2024-02-29T18:35:22.655Z,20.27
2024-02-29T18:37:49.189Z,21.52
2024-02-29T18:40:16.143Z,19.27
2024-02-29T18:42:43.521Z,20.48
2024-02-29T18:45:10.698Z,18.67
2024-02-29T18:47:37.372Z,20.67
2024-02-29T18:50:05.894Z,20.90
2024-02-29T18:52:32.741Z,21.90
2024-02-29T18:54:59.613Z,19.98
2024-02-29T18:57:26.172Z,22.33
2024-02-29T18:59:52.941Z,22.98
2024-02-29T19:02:19.820Z,17.95
2024-02-29T19:04:52.195Z,21.00
2024-02-29T19:07:19.145Z,18.70
2024-02-29T19:09:46.304Z,18.92
2024-02-29T19:12:13.160Z,23.25
2024-02-29T19:14:40.424Z,21.13
2024-02-29T19:17:07.206Z,18.88
2024-02-29T19:19:33.669Z,19.25
2024-02-29T19:22:00.505Z,21.00
2024-02-29T19:24:27.308Z,21.33
2024-02-29T19:26:54.085Z,19.25
2024-02-29T19:29:20.879Z,20.58
2024-02-29T19:31:47.708Z,21.23
2024-02-29T19:34:14.464Z,19.88
2024-02-29T19:36:41.370Z,19.50
2024-02-29T19:39:07.962Z,18.90
2024-02-29T19:41:34.793Z,20.42
2024-02-29T19:44:01.526Z,23.25
2024-02-29T19:46:28.836Z,21.38
2024-02-29T19:48:55.794Z,22.10
2024-02-29T19:51:22.590Z,20.65
2024-02-29T19:53:49.120Z,22.15
2024-02-29T19:56:15.698Z,19.40
2024-02-29T19:58:42.636Z,21.52
2024-02-29T20:01:09.255Z,19.75
2024-02-29T20:03:35.793Z,19.20
2024-02-29T20:06:02.545Z,21.70
2024-02-29T20:08:29.363Z,20.88
2024-02-29T20:10:55.951Z,21.55
2024-02-29T20:13:22.959Z,21.77
2024-02-29T20:15:50.954Z,22.55
2024-02-29T20:18:19.034Z,20.20
2024-02-29T20:20:45.911Z,19.55
2024-02-29T20:23:13.157Z,19.27
2024-02-29T20:25:42.030Z,18.08
2024-02-29T20:28:09.177Z,21.08
2024-02-29T20:30:36.255Z,20.23
2024-02-29T20:33:02.880Z,21.23
2024-02-29T20:35:29.466Z,19.10
2024-02-29T20:37:56.246Z,21.25
2024-02-29T20:40:23.339Z,21.90
2024-02-29T20:42:50.142Z,19.13
2024-02-29T20:45:17.685Z,17.63
2024-02-29T20:47:45.036Z,18.13
2024-02-29T20:50:14.828Z,20.50
2024-02-29T20:52:43.674Z,21.35
2024-02-29T20:55:10.725Z,22.13
2024-02-29T20:57:37.996Z,20.00
2024-02-29T21:00:05.343Z,21.88
2024-02-29T21:02:32.157Z,22.75
2024-02-29T21:05:05.287Z,22.55
2024-02-29T21:07:33.670Z,19.95
2024-02-29T21:10:01.073Z,21.13
2024-02-29T21:12:27.883Z,24.08
2024-02-29T21:14:54.624Z,21.40
2024-02-29T21:17:22.491Z,24.77
2024-02-29T21:19:49.121Z,21.55
2024-02-29T21:22:16.293Z,21.25
2024-02-29T21:24:42.866Z,24.20
2024-02-29T21:27:09.911Z,20.92
2024-02-29T21:29:36.538Z,21.15
2024-02-29T21:32:04.900Z,21.25
2024-02-29T21:34:31.689Z,22.40
2024-02-29T21:36:58.837Z,19.70
2024-02-29T21:39:32.403Z,22.85
2024-02-29T21:42:04.078Z,23.58
2024-02-29T21:44:30.873Z,24.95
2024-02-29T21:46:57.615Z,20.65
2024-02-29T21:49:24.497Z,22.67
2024-02-29T21:51:52.540Z,23.00
2024-02-29T21:54:20.962Z,23.40
2024-02-29T21:56:47.520Z,23.30
2024-02-29T21:59:14.326Z,19.83
2024-02-29T22:01:40.992Z,22.25
2024-02-29T22:04:07.849Z,18.08
2024-02-29T22:06:34.648Z,22.27
2024-02-29T22:09:01.172Z,25.13
2024-02-29T22:11:28.428Z,22.42
2024-02-29T22:13:55.236Z,24.35
2024-02-29T22:16:22.588Z,21.95
2024-02-29T22:18:49.423Z,25.48
2024-02-29T22:21:26.352Z,23.05
2024-02-29T22:23:52.862Z,22.05
2024-02-29T22:26:19.363Z,25.02
2024-02-29T22:28:45.835Z,21.17
2024-02-29T22:31:12.615Z,21.25
2024-02-29T22:33:39.477Z,18.13
2024-02-29T22:36:06.305Z,24.02
2024-02-29T22:38:32.901Z,21.48
2024-02-29T22:41:01.631Z,26.90
2024-02-29T22:43:28.501Z,22.23
2024-02-29T22:45:55.384Z,25.25
2024-02-29T22:48:22.180Z,21.77
2024-02-29T22:50:49.198Z,24.83
2024-02-29T22:53:15.803Z,24.52
2024-02-29T22:55:42.511Z,23.50
2024-02-29T22:58:09.045Z,28.13
2024-02-29T23:00:37.781Z,25.17
2024-02-29T23:03:04.615Z,23.88
2024-02-29T23:05:31.256Z,25.65
2024-02-29T23:07:58.357Z,22.73
2024-02-29T23:10:27.340Z,21.45
2024-02-29T23:12:54.447Z,25.30
2024-02-29T23:15:21.194Z,24.35
2024-02-29T23:17:51.897Z,25.33
2024-02-29T23:20:18.898Z,23.50
2024-02-29T23:22:46.366Z,23.25
2024-02-29T23:25:13.499Z,26.80
2024-02-29T23:27:40.353Z,23.40
2024-02-29T23:30:08.709Z,23.00
2024-02-29T23:32:36.610Z,22.25
2024-02-29T23:35:03.827Z,25.52
2024-02-29T23:37:32.046Z,25.40
2024-02-29T23:39:59.148Z,25.05
2024-02-29T23:42:25.889Z,27.63
2024-02-29T23:44:52.465Z,23.88
2024-02-29T23:47:19.308Z,25.52
2024-02-29T23:49:46.047Z,25.40
2024-02-29T23:52:12.990Z,26.67
2024-02-29T23:54:40.642Z,25.52
2024-02-29T23:57:08.182Z,25.75
2024-02-29T23:59:34.927Z,23.52
